createdAt,value
2019-06-01T00:01:06.769Z,99.90
2019-06-01T00:03:35.185Z,99.90
2019-06-01T00:06:03.657Z,99.90
2019-06-01T00:08:32.078Z,99.90
2019-06-01T00:11:00.473Z,99.90
2019-06-01T00:13:28.889Z,99.90
2019-06-01T00:15:57.296Z,99.90
2019-06-01T00:18:25.727Z,99.90
2019-06-01T00:20:54.904Z,99.90
2019-06-01T00:23:23.550Z,99.90
2019-06-01T00:25:52.912Z,99.90
2019-06-01T00:28:21.479Z,99.90
2019-06-01T00:30:49.937Z,99.90
2019-06-01T00:33:18.442Z,99.90
2019-06-01T00:35:47.479Z,99.90
2019-06-01T00:38:16.046Z,99.90
2019-06-01T00:40:44.481Z,99.90
2019-06-01T00:43:12.892Z,99.90
2019-06-01T00:45:42.298Z,99.90
2019-06-01T00:48:10.845Z,99.90
2019-06-01T00:50:39.256Z,99.90
2019-06-01T00:53:07.686Z,99.90
2019-06-01T00:55:36.078Z,99.90
2019-06-01T00:58:04.567Z,99.90
2019-06-01T01:00:43.141Z,99.90
2019-06-01T01:03:03.119Z,99.90
2019-06-01T01:05:31.603Z,99.90
2019-06-01T01:08:00.036Z,99.90
2019-06-01T01:10:28.504Z,99.90
2019-06-01T01:13:04.343Z,99.90
2019-06-01T01:15:33.476Z,99.90
2019-06-01T01:18:01.888Z,99.90
2019-06-01T01:20:30.311Z,99.90
2019-06-01T01:22:58.720Z,99.90
2019-06-01T01:25:27.132Z,99.90
2019-06-01T01:27:57.050Z,99.90
2019-06-01T01:31:00.577Z,99.90
2019-06-01T01:33:15.103Z,99.90
2019-06-01T01:35:43.606Z,99.90
2019-06-01T01:38:12.107Z,99.90
2019-06-01T01:40:40.595Z,99.90
2019-06-01T01:43:09.050Z,99.90
2019-06-01T01:45:37.451Z,99.90
2019-06-01T01:48:05.890Z,99.90
2019-06-01T01:50:34.295Z,99.90
2019-06-01T01:53:03.321Z,99.90
2019-06-01T01:55:31.995Z,99.90
2019-06-01T01:58:01.671Z,99.90
2019-06-01T02:00:47.478Z,99.90
2019-06-01T02:03:15.894Z,99.90
2019-06-01T02:05:44.361Z,99.90
2019-06-01T02:08:13.007Z,99.90
2019-06-01T02:10:41.582Z,99.90
2019-06-01T02:13:09.999Z,99.90
2019-06-01T02:15:40.740Z,99.90
2019-06-01T02:18:09.218Z,99.90
2019-06-01T02:20:37.644Z,99.90
2019-06-01T02:23:06.373Z,99.90
2019-06-01T02:25:35.234Z,99.90
2019-06-01T02:28:05.268Z,99.90
2019-06-01T02:30:33.720Z,99.90
2019-06-01T02:33:02.490Z,99.90
2019-06-01T02:35:32.264Z,99.90
2019-06-01T02:38:00.652Z,99.90
2019-06-01T02:40:29.320Z,99.90
2019-06-01T02:42:59.265Z,99.90
2019-06-01T02:45:28.815Z,99.90
2019-06-01T02:47:57.532Z,99.90
2019-06-01T02:50:26.572Z,99.90
2019-06-01T02:52:55.513Z,99.90
2019-06-01T02:55:24.764Z,99.90
2019-06-01T02:57:53.221Z,99.90
2019-06-01T03:00:42.645Z,99.90
2019-06-01T03:03:11.071Z,99.90
2019-06-01T03:05:39.919Z,99.90
2019-06-01T03:08:09.001Z,99.90
2019-06-01T03:10:39.665Z,99.90
2019-06-01T03:13:09.768Z,99.90
2019-06-01T03:15:40.392Z,99.90
2019-06-01T03:18:11.844Z,99.90
2019-06-01T03:20:40.880Z,99.90
2019-06-01T03:23:12.095Z,99.90
2019-06-01T03:25:41.250Z,99.90
2019-06-01T03:28:12.745Z,99.90
2019-06-01T03:30:45.454Z,99.90
2019-06-01T03:33:14.164Z,99.90
2019-06-01T03:35:42.366Z,99.90
2019-06-01T03:38:11.162Z,99.90
2019-06-01T03:40:39.668Z,99.90
2019-06-01T03:43:09.249Z,99.90
2019-06-01T03:45:37.841Z,99.90
2019-06-01T03:48:06.755Z,99.90
2019-06-01T03:50:35.325Z,99.90
2019-06-01T03:53:03.907Z,99.90
2019-06-01T03:55:32.414Z,99.90
2019-06-01T03:58:01.003Z,99.90
2019-06-01T04:00:29.535Z,99.90
2019-06-01T04:02:57.951Z,99.90
2019-06-01T04:05:26.342Z,99.90
2019-06-01T04:07:54.764Z,99.90
2019-06-01T04:10:23.981Z,99.90
2019-06-01T04:12:52.402Z,99.90
2019-06-01T04:15:20.809Z,99.90
2019-06-01T04:17:49.237Z,99.90
2019-06-01T04:20:17.723Z,99.90
2019-06-01T04:22:46.212Z,99.90
2019-06-01T04:25:14.636Z,99.90
2019-06-01T04:27:43.042Z,99.90
2019-06-01T04:30:11.728Z,99.90
2019-06-01T04:32:49.412Z,99.90
2019-06-01T04:35:11.131Z,99.90
2019-06-01T04:37:39.637Z,99.90
2019-06-01T04:40:09.523Z,99.90
2019-06-01T04:42:38.012Z,99.90
2019-06-01T04:45:09.156Z,99.90
2019-06-01T04:47:38.295Z,99.90
2019-06-01T04:50:06.974Z,99.90
2019-06-01T04:52:35.394Z,99.90
2019-06-01T04:55:05.346Z,99.90
2019-06-01T04:57:33.769Z,99.90
2019-06-01T05:00:03.294Z,99.90
2019-06-01T05:02:32.171Z,99.90
2019-06-01T05:05:00.583Z,99.90
2019-06-01T05:07:29.006Z,99.90
2019-06-01T05:09:57.420Z,99.90
2019-06-01T05:12:25.883Z,99.90
2019-06-01T05:14:54.280Z,99.90
2019-06-01T05:17:22.699Z,99.90
2019-06-01T05:19:51.099Z,99.90
2019-06-01T05:22:19.521Z,99.90
2019-06-01T05:24:47.917Z,99.90
2019-06-01T05:27:17.344Z,99.90
2019-06-01T05:29:45.822Z,99.90
2019-06-01T05:32:14.653Z,99.90
2019-06-01T05:34:43.129Z,99.90
2019-06-01T05:37:12.352Z,99.90
2019-06-01T05:39:40.849Z,99.90
2019-06-01T05:42:10.405Z,99.90
2019-06-01T05:44:39.038Z,99.90
2019-06-01T05:47:07.468Z,99.90
2019-06-01T05:49:35.977Z,99.90
2019-06-01T05:52:04.654Z,99.90
2019-06-01T05:54:33.084Z,99.90
2019-06-01T05:57:01.495Z,99.90
2019-06-01T05:59:29.931Z,99.90
2019-06-01T06:01:58.363Z,99.90
2019-06-01T06:04:26.866Z,99.90
2019-06-01T06:06:55.272Z,99.90
2019-06-01T06:09:23.705Z,99.90
2019-06-01T06:11:54.050Z,99.90
2019-06-01T06:14:22.798Z,99.90
2019-06-01T06:16:51.220Z,99.90
2019-06-01T06:19:22.160Z,99.90
2019-06-01T06:21:49.815Z,99.90
2019-06-01T06:24:18.589Z,99.90
2019-06-01T06:26:47.128Z,99.90
2019-06-01T06:29:16.835Z,99.90
2019-06-01T06:31:45.329Z,99.90
2019-06-01T06:34:13.750Z,99.90
2019-06-01T06:36:42.232Z,99.90
2019-06-01T06:39:10.638Z,99.90
2019-06-01T06:41:39.063Z,99.90
2019-06-01T06:44:07.543Z,99.90
2019-06-01T06:46:35.932Z,99.90
2019-06-01T06:49:04.357Z,99.90
2019-06-01T06:51:32.768Z,99.90
2019-06-01T06:54:01.163Z,99.90
2019-06-01T06:56:29.652Z,99.90
2019-06-01T06:58:58.071Z,99.90
2019-06-01T07:01:26.996Z,99.90
2019-06-01T07:04:11.383Z,99.90
2019-06-01T07:06:25.775Z,99.90
2019-06-01T07:08:54.215Z,99.90
2019-06-01T07:11:23.403Z,99.90
2019-06-01T07:13:52.003Z,99.90
2019-06-01T07:16:21.406Z,99.90
2019-06-01T07:18:49.892Z,99.90
2019-06-01T07:21:19.461Z,99.90
2019-06-01T07:23:47.976Z,99.90
2019-06-01T07:26:16.363Z,99.90
2019-06-01T07:28:44.823Z,99.90
2019-06-01T07:31:13.264Z,99.90
2019-06-01T07:33:41.673Z,99.60
2019-06-01T07:36:10.063Z,99.80
2019-06-01T07:38:38.492Z,99.30
2019-06-01T07:41:06.912Z,99.20
2019-06-01T07:43:35.331Z,98.80
2019-06-01T07:46:03.914Z,98.50
2019-06-01T07:48:33.452Z,98.00
2019-06-01T07:51:01.915Z,97.90
2019-06-01T07:53:31.408Z,97.50
2019-06-01T07:56:00.065Z,97.20
2019-06-01T07:58:28.895Z,97.10
2019-06-01T08:00:57.377Z,96.80
2019-06-01T08:03:28.716Z,96.40
2019-06-01T08:05:55.902Z,96.40
2019-06-01T08:08:25.248Z,96.10
2019-06-01T08:10:53.928Z,95.80
2019-06-01T08:13:23.392Z,95.30
2019-06-01T08:15:51.979Z,95.50
2019-06-01T08:18:21.912Z,95.50
2019-06-01T08:20:50.474Z,95.20
2019-06-01T08:23:18.887Z,94.70
2019-06-01T08:25:47.299Z,94.20
2019-06-01T08:28:15.803Z,94.10
2019-06-01T08:30:44.217Z,94.20
2019-06-01T08:33:12.618Z,94.30
2019-06-01T08:35:41.042Z,93.80
2019-06-01T08:38:09.479Z,92.70
2019-06-01T08:40:37.903Z,92.30
2019-06-01T08:43:06.332Z,91.70
2019-06-01T08:45:37.449Z,91.50
2019-06-01T08:48:04.885Z,91.30
2019-06-01T08:50:34.057Z,89.90
2019-06-01T08:53:02.565Z,89.70
2019-06-01T08:55:32.223Z,86.80
2019-06-01T08:58:00.831Z,86.20
2019-06-01T09:00:30.524Z,81.80
2019-06-01T09:02:59.068Z,81.50
2019-06-01T09:05:28.908Z,80.90
2019-06-01T09:07:57.638Z,78.90
2019-06-01T09:10:27.441Z,76.80
2019-06-01T09:12:55.955Z,77.50
2019-06-01T09:15:25.609Z,77.00
2019-06-01T09:17:54.161Z,75.80
2019-06-01T09:20:22.581Z,75.90
2019-06-01T09:22:51.078Z,75.50
2019-06-01T09:25:19.494Z,74.40
2019-06-01T09:27:47.889Z,74.90
2019-06-01T09:30:16.397Z,72.50
2019-06-01T09:32:44.811Z,74.10
2019-06-01T09:35:13.645Z,72.90
2019-06-01T09:37:45.650Z,72.40
2019-06-01T09:40:13.121Z,71.70
2019-06-01T09:42:41.520Z,70.90
2019-06-01T09:45:10.386Z,70.60
2019-06-01T09:47:38.840Z,70.10
2019-06-01T09:50:07.503Z,68.80
2019-06-01T09:52:35.918Z,67.70
2019-06-01T09:55:05.875Z,67.60
2019-06-01T09:57:34.290Z,67.60
2019-06-01T10:00:02.776Z,68.30
2019-06-01T10:02:32.049Z,66.80
2019-06-01T10:05:00.854Z,64.40
2019-06-01T10:07:29.610Z,64.50
2019-06-01T10:09:59.350Z,62.60
2019-06-01T10:12:27.778Z,61.70
2019-06-01T10:14:56.193Z,60.70
2019-06-01T10:17:24.642Z,60.30
2019-06-01T10:19:53.055Z,59.50
2019-06-01T10:22:21.498Z,59.10
2019-06-01T10:24:49.966Z,59.90
2019-06-01T10:27:18.459Z,60.80
2019-06-01T10:29:46.873Z,59.90
2019-06-01T10:32:15.329Z,58.40
2019-06-01T10:34:43.797Z,58.00
2019-06-01T10:37:12.219Z,56.90
2019-06-01T10:39:41.407Z,57.00
2019-06-01T10:42:09.952Z,56.30
2019-06-01T10:44:42.238Z,56.10
2019-06-01T10:47:08.498Z,56.70
2019-06-01T10:49:37.943Z,57.90
2019-06-01T10:52:06.505Z,57.60
2019-06-01T10:54:36.051Z,58.30
2019-06-01T10:57:04.733Z,57.20
2019-06-01T10:59:34.178Z,57.50
2019-06-01T11:02:02.899Z,57.40
2019-06-01T11:04:32.706Z,58.20
2019-06-01T11:07:01.219Z,58.50
2019-06-01T11:09:29.636Z,58.00
2019-06-01T11:11:58.059Z,57.10
2019-06-01T11:14:26.545Z,57.90
2019-06-01T11:16:57.970Z,58.30
2019-06-01T11:19:25.177Z,57.00
2019-06-01T11:21:53.650Z,56.50
2019-06-01T11:24:22.063Z,56.30
2019-06-01T11:26:50.499Z,55.90
2019-06-01T11:29:18.978Z,56.30
2019-06-01T11:31:47.405Z,55.60
2019-06-01T11:34:15.803Z,55.40
2019-06-01T11:37:03.504Z,54.20
2019-06-01T11:39:14.503Z,52.90
2019-06-01T11:41:42.938Z,53.50
2019-06-01T11:44:11.387Z,52.90
2019-06-01T11:46:41.094Z,53.10
2019-06-01T11:49:09.695Z,51.80
2019-06-01T11:51:39.407Z,52.30
2019-06-01T11:54:08.068Z,52.40
2019-06-01T11:56:37.256Z,52.80
2019-06-01T11:59:05.966Z,51.70
2019-06-01T12:01:35.541Z,51.30
2019-06-01T12:04:04.411Z,50.90
2019-06-01T12:06:32.839Z,51.40
2019-06-01T12:09:01.236Z,50.40
2019-06-01T12:11:29.664Z,50.80
2019-06-01T12:13:58.146Z,50.10
2019-06-01T12:16:26.562Z,49.40
2019-06-01T12:18:54.970Z,49.50
2019-06-01T12:21:23.392Z,49.60
2019-06-01T12:23:51.816Z,48.80
2019-06-01T12:26:20.297Z,49.40
2019-06-01T12:28:49.165Z,48.80
2019-06-01T12:31:17.953Z,50.30
2019-06-01T12:33:46.473Z,50.80
2019-06-01T12:36:15.041Z,49.20
2019-06-01T12:38:53.692Z,49.10
2019-06-01T12:41:22.856Z,48.10
2019-06-01T12:44:08.869Z,47.60
2019-06-01T12:46:39.662Z,45.90
2019-06-01T12:49:09.984Z,45.60
2019-06-01T12:51:38.674Z,47.00
2019-06-01T12:54:07.330Z,47.20
2019-06-01T12:56:35.842Z,46.20
2019-06-01T12:59:05.282Z,46.30
2019-06-01T13:01:33.755Z,46.50
2019-06-01T13:04:02.245Z,48.30
2019-06-01T13:06:30.654Z,46.30
2019-06-01T13:08:59.058Z,47.80
2019-06-01T13:11:27.462Z,47.50
2019-06-01T13:13:55.882Z,47.50
2019-06-01T13:16:24.298Z,47.80
2019-06-01T13:18:52.735Z,47.30
2019-06-01T13:21:21.149Z,46.70
2019-06-01T13:23:49.729Z,45.70
2019-06-01T13:26:18.311Z,45.90
2019-06-01T13:28:46.735Z,47.30
2019-06-01T13:31:15.204Z,45.60
2019-06-01T13:33:44.443Z,45.50
2019-06-01T13:36:13.006Z,44.90
2019-06-01T13:38:42.511Z,46.30
2019-06-01T13:41:11.147Z,46.00
2019-06-01T13:43:39.558Z,45.50
2019-06-01T13:46:08.031Z,45.40
2019-06-01T13:48:36.511Z,44.20
2019-06-01T13:51:04.985Z,44.30
2019-06-01T13:53:33.404Z,43.40
2019-06-01T13:56:01.796Z,43.10
2019-06-01T13:58:30.208Z,43.30
2019-06-01T14:00:58.634Z,42.90
2019-06-01T14:03:27.123Z,41.40
2019-06-01T14:05:55.544Z,43.00
2019-06-01T14:08:28.817Z,42.70
2019-06-01T14:10:55.320Z,42.70
2019-06-01T14:13:23.939Z,41.80
2019-06-01T14:15:53.558Z,42.10
2019-06-01T14:18:22.196Z,40.30
2019-06-01T14:20:51.742Z,40.90
2019-06-01T14:23:20.325Z,41.40
2019-06-01T14:25:50.090Z,41.50
2019-06-01T14:28:18.696Z,41.60
2019-06-01T14:30:48.342Z,41.50
2019-06-01T14:33:17.078Z,42.30
2019-06-01T14:35:46.564Z,41.80
2019-06-01T14:38:15.219Z,43.00
2019-06-01T14:40:43.627Z,43.00
2019-06-01T14:43:12.048Z,44.00
2019-06-01T14:45:40.459Z,44.60
2019-06-01T14:48:08.979Z,44.00
2019-06-01T14:50:37.697Z,44.10
2019-06-01T14:53:06.118Z,44.30
2019-06-01T14:55:34.518Z,43.40
2019-06-01T14:58:02.957Z,43.60
2019-06-01T15:00:31.355Z,44.40
2019-06-01T15:02:59.859Z,45.00
2019-06-01T15:05:28.267Z,43.90
2019-06-01T15:07:57.116Z,44.80
2019-06-01T15:10:25.711Z,44.50
2019-06-01T15:13:00.346Z,44.30
2019-06-01T15:15:24.271Z,44.20
2019-06-01T15:17:53.409Z,44.20
2019-06-01T15:20:21.930Z,45.20
2019-06-01T15:22:50.385Z,44.50
2019-06-01T15:25:18.986Z,44.10
2019-06-01T15:27:47.383Z,42.90
2019-06-01T15:30:17.440Z,43.80
2019-06-01T15:32:45.893Z,44.80
2019-06-01T15:35:15.647Z,45.10
2019-06-01T15:37:44.160Z,44.70
2019-06-01T15:40:13.245Z,44.30
2019-06-01T15:42:41.657Z,43.60
2019-06-01T15:45:11.286Z,44.00
2019-06-01T15:47:39.704Z,43.80
2019-06-01T15:50:09.161Z,44.10
2019-06-01T15:52:37.684Z,43.90
2019-06-01T15:55:07.549Z,43.60
2019-06-01T15:57:35.954Z,44.90
2019-06-01T16:00:11.586Z,45.00
2019-06-01T16:02:40.003Z,44.30
2019-06-01T16:05:10.027Z,44.50
2019-06-01T16:07:38.423Z,44.60
2019-06-01T16:10:08.401Z,44.00
2019-06-01T16:12:37.155Z,44.30
2019-06-01T16:15:09.249Z,44.80
2019-06-01T16:17:37.644Z,44.60
2019-06-01T16:20:08.317Z,44.00
2019-06-01T16:22:36.820Z,43.10
2019-06-01T16:25:08.537Z,41.70
2019-06-01T16:27:37.003Z,40.30
2019-06-01T16:30:07.073Z,38.80
2019-06-01T16:32:39.194Z,38.70
2019-06-01T16:35:06.684Z,37.70
2019-06-01T16:37:35.089Z,37.60
2019-06-01T16:40:09.976Z,37.90
2019-06-01T16:42:37.244Z,36.30
2019-06-01T16:45:09.326Z,36.20
2019-06-01T16:47:37.748Z,36.20
2019-06-01T16:50:07.797Z,36.00
2019-06-01T16:52:36.230Z,35.80
2019-06-01T16:55:07.092Z,35.80
2019-06-01T16:57:35.851Z,34.40
2019-06-01T17:00:07.210Z,33.70
2019-06-01T17:02:35.807Z,33.90
2019-06-01T17:05:06.885Z,33.30
2019-06-01T17:07:35.621Z,32.80
2019-06-01T17:10:21.639Z,32.10
2019-06-01T17:12:43.041Z,32.50
2019-06-01T17:15:08.800Z,34.10
2019-06-01T17:17:37.228Z,34.80
2019-06-01T17:20:07.338Z,34.90
2019-06-01T17:22:35.779Z,33.70
2019-06-01T17:25:06.475Z,33.30
2019-06-01T17:27:34.878Z,32.70
2019-06-01T17:30:07.809Z,32.90
2019-06-01T17:32:33.577Z,33.30
2019-06-01T17:35:03.285Z,33.20
2019-06-01T17:37:32.098Z,33.10
2019-06-01T17:40:00.515Z,32.40
2019-06-01T17:42:28.908Z,33.00
2019-06-01T17:44:57.319Z,33.50
2019-06-01T17:47:27.301Z,33.10
2019-06-01T17:49:55.852Z,33.90
2019-06-01T17:52:24.265Z,34.20
2019-06-01T17:54:52.873Z,33.90
2019-06-01T17:57:21.310Z,38.00
2019-06-01T17:59:49.703Z,36.10
2019-06-01T18:02:18.127Z,39.10
2019-06-01T18:04:46.681Z,40.60
2019-06-01T18:07:15.075Z,41.20
2019-06-01T18:09:43.499Z,43.30
2019-06-01T18:12:12.272Z,44.70
2019-06-01T18:14:40.818Z,46.20
2019-06-01T18:17:10.250Z,48.20
2019-06-01T18:19:38.832Z,50.00
2019-06-01T18:22:07.332Z,52.30
2019-06-01T18:24:35.735Z,54.30
2019-06-01T18:27:04.420Z,57.70
2019-06-01T18:29:33.004Z,59.30
2019-06-01T18:32:02.921Z,61.50
2019-06-01T18:34:31.476Z,64.10
2019-06-01T18:36:59.896Z,66.60
2019-06-01T18:39:28.293Z,69.20
2019-06-01T18:41:56.789Z,72.10
2019-06-01T18:44:25.532Z,74.00
2019-06-01T18:46:53.939Z,75.80
2019-06-01T18:49:22.546Z,77.10
2019-06-01T18:51:51.136Z,78.60
2019-06-01T18:54:19.534Z,80.10
2019-06-01T18:56:47.960Z,82.40
2019-06-01T18:59:16.374Z,84.50
2019-06-01T19:01:44.815Z,85.50
2019-06-01T19:04:13.855Z,87.60
2019-06-01T19:06:42.385Z,88.80
2019-06-01T19:09:11.329Z,89.50
2019-06-01T19:11:39.736Z,89.80
2019-06-01T19:14:08.145Z,90.30
2019-06-01T19:16:36.563Z,90.60
2019-06-01T19:19:06.198Z,90.80
2019-06-01T19:21:34.850Z,91.70
2019-06-01T19:24:03.265Z,92.00
2019-06-01T19:26:31.697Z,92.30
2019-06-01T19:29:00.104Z,91.80
2019-06-01T19:31:28.976Z,91.60
2019-06-01T19:33:57.435Z,92.30
2019-06-01T19:36:26.363Z,93.00
2019-06-01T19:38:55.724Z,93.70
2019-06-01T19:41:24.136Z,94.00
2019-06-01T19:43:52.627Z,94.20
2019-06-01T19:46:21.053Z,94.30
2019-06-01T19:48:49.474Z,94.60
2019-06-01T19:51:18.774Z,94.90
2019-06-01T19:53:47.467Z,95.40
2019-06-01T19:56:16.995Z,95.10
2019-06-01T19:58:45.476Z,95.00
2019-06-01T20:01:14.240Z,95.00
2019-06-01T20:03:42.628Z,95.30
2019-06-01T20:06:11.069Z,95.60
2019-06-01T20:08:39.468Z,96.10
2019-06-01T20:11:07.915Z,96.20
2019-06-01T20:13:36.400Z,96.30
2019-06-01T20:16:04.962Z,96.90
2019-06-01T20:18:33.387Z,97.40
2019-06-01T20:21:01.983Z,97.40
2019-06-01T20:23:30.423Z,97.70
2019-06-01T20:25:58.864Z,98.30
2019-06-01T20:28:27.269Z,98.50
2019-06-01T20:30:55.693Z,98.70
2019-06-01T20:33:25.096Z,98.60
2019-06-01T20:35:53.523Z,98.50
2019-06-01T20:38:23.367Z,98.50
2019-06-01T20:40:51.918Z,98.60
2019-06-01T20:43:20.842Z,98.70
2019-06-01T20:45:49.415Z,98.90
2019-06-01T20:48:18.938Z,99.10
2019-06-01T20:50:47.618Z,99.50
2019-06-01T20:53:16.899Z,99.90
2019-06-01T20:55:45.518Z,99.80
2019-06-01T20:58:13.977Z,99.90
2019-06-01T21:00:42.428Z,99.90
2019-06-01T21:03:10.828Z,99.90
2019-06-01T21:05:39.358Z,99.90
2019-06-01T21:08:07.804Z,99.90
2019-06-01T21:10:36.297Z,99.90
2019-06-01T21:13:07.799Z,99.90
2019-06-01T21:15:34.898Z,99.90
2019-06-01T21:18:03.471Z,99.90
2019-06-01T21:20:31.880Z,99.90
2019-06-01T21:23:00.284Z,99.90
2019-06-01T21:25:28.770Z,99.90
2019-06-01T21:27:57.240Z,99.90
2019-06-01T21:30:25.899Z,99.90
2019-06-01T21:32:54.473Z,99.90
2019-06-01T21:35:23.489Z,99.90
2019-06-01T21:37:51.989Z,99.90
2019-06-01T21:40:21.492Z,99.90
2019-06-01T21:43:00.930Z,99.90
2019-06-01T21:45:21.703Z,99.90
2019-06-01T21:47:50.237Z,99.90
2019-06-01T21:50:19.908Z,99.90
2019-06-01T21:52:48.582Z,99.90
2019-06-01T21:55:18.075Z,99.90
2019-06-01T21:57:46.659Z,99.90
2019-06-01T22:00:24.661Z,99.90
2019-06-01T22:02:53.253Z,99.90
2019-06-01T22:05:23.003Z,99.90
2019-06-01T22:07:51.420Z,99.90
2019-06-01T22:10:21.013Z,99.90
2019-06-01T22:12:49.625Z,99.90
2019-06-01T22:15:19.125Z,99.90
2019-06-01T22:17:47.844Z,99.90
2019-06-01T22:20:17.766Z,99.90
2019-06-01T22:22:46.288Z,99.90
2019-06-01T22:25:14.688Z,99.90
2019-06-01T22:27:43.163Z,99.90
2019-06-01T22:30:12.004Z,99.90
2019-06-01T22:32:40.440Z,99.90
2019-06-01T22:35:09.918Z,99.90
2019-06-01T22:37:38.429Z,99.90
2019-06-01T22:40:07.760Z,99.90
2019-06-01T22:42:36.185Z,99.90
2019-06-01T22:45:06.341Z,99.90
2019-06-01T22:47:34.774Z,99.90
2019-06-01T22:50:03.477Z,99.90
2019-06-01T22:52:31.889Z,99.90
2019-06-01T22:55:00.296Z,99.90
2019-06-01T22:57:28.759Z,99.90
2019-06-01T22:59:57.168Z,99.90
2019-06-01T23:02:25.718Z,99.90
2019-06-01T23:04:54.284Z,99.90
2019-06-01T23:07:23.039Z,99.90
2019-06-01T23:09:51.484Z,99.90
2019-06-01T23:12:21.118Z,99.90
2019-06-01T23:14:49.834Z,99.90
2019-06-01T23:17:18.269Z,99.90
2019-06-01T23:19:46.725Z,99.90
2019-06-01T23:22:15.147Z,99.90
2019-06-01T23:24:43.549Z,99.90
2019-06-01T23:27:11.982Z,99.90
2019-06-01T23:29:40.372Z,99.90
2019-06-01T23:32:08.793Z,99.90
2019-06-01T23:34:37.210Z,99.90
2019-06-01T23:37:05.640Z,99.90
2019-06-01T23:39:34.059Z,99.90
2019-06-01T23:42:02.528Z,99.90
2019-06-01T23:44:33.313Z,99.90
2019-06-01T23:47:01.063Z,99.90
2019-06-01T23:49:29.463Z,99.90
2019-06-01T23:51:57.894Z,99.90
2019-06-01T23:54:27.489Z,99.90
2019-06-01T23:56:56.198Z,99.90
2019-06-01T23:59:24.602Z,99.90
